Time;durP1;ratioP1;P1;durP2;ratioP2;P2;SDS_P1;SDS_P2;PMS_P1;PMS_P2;Temp;Humidity;BMP_temperature;BMP_pressure;BME280_temperature;BME280_humidity;BME280_pressure;Samples;Min_cycle;Max_cycle;Signal;HPM_P1;HPM_P2
2023/08/16 00:01:50;;;;;;;164.47;155.97;;;13.30;85.50;;;;;;5073869;28;20261;-72
2023/08/16 00:04:17;;;;;;;130.60;123.67;;;13.40;85.50;;;;;;5083161;28;20624;-66
2023/08/16 00:06:44;;;;;;;113.90;107.80;;;13.40;85.10;;;;;;5069921;28;20179;-66
2023/08/16 00:09:12;;;;;;;123.47;116.83;;;13.50;85.10;;;;;;5075949;28;20282;-68
2023/08/16 00:11:39;;;;;;;99.50;94.10;;;13.60;85.20;;;;;;5073731;28;20215;-72
2023/08/16 00:14:07;;;;;;;100.77;95.33;;;13.60;85.10;;;;;;5078221;28;20175;-71
2023/08/16 00:16:34;;;;;;;90.97;85.57;;;13.70;84.80;;;;;;5078460;28;20195;-73
2023/08/16 00:19:01;;;;;;;81.93;77.43;;;14.10;84.40;;;;;;5079189;28;20179;-73
2023/08/16 00:21:29;;;;;;;81.43;76.90;;;14.40;84.00;;;;;;5079070;28;20199;-67
2023/08/16 00:23:56;;;;;;;41.37;39.07;;;14.70;83.40;;;;;;5077774;28;20249;-72
2023/08/16 00:26:24;;;;;;;32.10;30.40;;;14.70;81.60;;;;;;5080743;28;20426;-70
2023/08/16 00:28:51;;;;;;;27.37;25.67;;;14.70;80.10;;;;;;5083672;28;20775;-67
2023/08/16 00:31:19;;;;;;;24.00;22.50;;;14.80;81.00;;;;;;5079846;28;20631;-66
2023/08/16 00:33:47;;;;;;;20.90;19.60;;;14.80;80.80;;;;;;5083491;28;20614;-67
2023/08/16 00:36:14;;;;;;;23.23;21.90;;;14.80;80.00;;;;;;5077496;28;20569;-67
2023/08/16 00:38:44;;;;;;;22.73;21.27;;;15.00;80.40;;;;;;5072916;28;20183;-68
2023/08/16 00:41:12;;;;;;;18.00;16.80;;;14.90;80.00;;;;;;5079740;28;20195;-66
2023/08/16 00:43:40;;;;;;;17.30;16.07;;;15.10;80.70;;;;;;5071514;28;20671;-70
2023/08/16 00:46:12;;;;;;;18.37;16.97;;;15.30;80.30;;;;;;5077208;28;20190;-68
2023/08/16 00:48:42;;;;;;;14.03;12.83;;;15.50;80.50;;;;;;5073437;28;20195;-66
2023/08/16 00:51:11;;;;;;;12.83;11.90;;;15.20;78.90;;;;;;5078594;28;20240;-67
2023/08/16 00:53:42;;;;;;;10.57;9.67;;;15.30;79.40;;;;;;5074245;28;20266;-66
2023/08/16 00:56:09;;;;;;;10.40;9.60;;;15.50;79.00;;;;;;5078615;28;20709;-68
2023/08/16 00:58:37;;;;;;;9.60;8.73;;;15.60;78.20;;;;;;5080425;28;20261;-66
2023/08/16 01:01:04;;;;;;;9.07;8.37;;;15.60;77.10;;;;;;5072815;28;20222;-67
2023/08/16 01:03:33;;;;;;;9.30;8.50;;;15.70;77.10;;;;;;5077479;28;20584;-67
2023/08/16 01:06:07;;;;;;;8.00;7.23;;;15.70;77.70;;;;;;5076011;28;20273;-68
2023/08/16 01:08:44;;;;;;;6.83;5.80;;;15.80;77.30;;;;;;5064483;28;20221;-67
2023/08/16 01:11:29;;;;;;;6.33;5.17;;;15.70;76.80;;;;;;5045560;28;20207;-66
2023/08/16 01:14:10;;;;;;;4.20;3.90;;;15.70;76.10;;;;;;5071603;28;20185;-66
2023/08/16 01:16:40;;;;;;;4.27;3.87;;;15.80;76.00;;;;;;5068923;28;20181;-65
2023/08/16 01:19:11;;;;;;;5.90;4.00;;;15.80;75.50;;;;;;5075621;28;20190;-69
2023/08/16 01:21:51;;;;;;;3.77;3.47;;;15.90;76.00;;;;;;5074582;28;20184;-67
2023/08/16 01:24:46;;;;;;;5.00;3.20;;;16.00;74.90;;;;;;5073544;28;20193;-66
2023/08/16 01:27:18;;;;;;;5.07;3.60;;;15.80;74.70;;;;;;5072265;28;20274;-66
2023/08/16 01:29:46;;;;;;;3.90;3.40;;;15.90;74.00;;;;;;5076169;28;20191;-66
2023/08/16 01:32:15;;;;;;;5.83;3.20;;;16.00;73.90;;;;;;5072189;28;20704;-66
2023/08/16 01:34:43;;;;;;;3.70;3.23;;;16.20;74.10;;;;;;5058566;28;20546;-67
2023/08/16 01:37:10;;;;;;;5.50;3.20;;;16.30;73.70;;;;;;5077406;28;20221;-70
2023/08/16 01:39:38;;;;;;;2.77;2.57;;;16.70;73.60;;;;;;5067151;28;20188;-67
2023/08/16 01:42:13;;;;;;;4.60;2.47;;;16.80;72.50;;;;;;5071469;28;20191;-70
2023/08/16 01:44:40;;;;;;;4.97;2.33;;;16.80;71.30;;;;;;5061583;28;20176;-67
2023/08/16 01:47:08;;;;;;;4.40;2.00;;;16.80;70.80;;;;;;5073051;28;20272;-67
2023/08/16 01:49:36;;;;;;;3.80;2.13;;;16.70;71.60;;;;;;5056745;28;20252;-72
2023/08/16 01:52:07;;;;;;;4.77;1.70;;;16.50;71.70;;;;;;5072671;28;20217;-70
2023/08/16 01:54:37;;;;;;;4.43;1.80;;;16.60;72.40;;;;;;5074385;28;20186;-66
2023/08/16 01:57:05;;;;;;;2.90;1.43;;;16.50;71.50;;;;;;5076487;28;20207;-66
2023/08/16 01:59:32;;;;;;;5.47;1.73;;;16.30;71.50;;;;;;5071148;28;20194;-69
2023/08/16 02:02:01;;;;;;;2.60;1.37;;;16.50;72.10;;;;;;5058938;28;20189;-69
2023/08/16 02:04:28;;;;;;;7.23;1.57;;;16.40;71.90;;;;;;5081322;28;20212;-69
2023/08/16 02:06:58;;;;;;;5.37;1.30;;;16.40;71.10;;;;;;5072432;28;20587;-71
2023/08/16 02:09:26;;;;;;;2.13;1.10;;;16.30;71.30;;;;;;5072859;28;20221;-70
2023/08/16 02:11:53;;;;;;;2.87;1.20;;;16.30;71.30;;;;;;5073250;28;20634;-67
2023/08/16 02:14:20;;;;;;;2.80;1.43;;;16.40;71.40;;;;;;5075549;28;20206;-67
2023/08/16 02:16:48;;;;;;;2.33;1.30;;;16.50;71.20;;;;;;5076222;28;20236;-67
2023/08/16 02:19:18;;;;;;;3.73;1.40;;;16.50;71.00;;;;;;5078238;28;20183;-66
2023/08/16 02:21:45;;;;;;;3.20;1.40;;;16.50;70.60;;;;;;5074129;28;20186;-69
2023/08/16 02:24:13;;;;;;;3.33;1.10;;;16.40;71.10;;;;;;5078909;28;20690;-66
2023/08/16 02:26:40;;;;;;;1.97;1.10;;;16.40;72.00;;;;;;5080939;28;20180;-68
2023/08/16 02:29:08;;;;;;;2.60;1.27;;;16.30;71.80;;;;;;5079323;28;20541;-67
2023/08/16 02:31:35;;;;;;;5.53;1.30;;;16.30;72.00;;;;;;5081763;28;20221;-67
2023/08/16 02:34:02;;;;;;;4.20;1.60;;;16.30;71.00;;;;;;5073427;28;20187;-67
2023/08/16 02:36:30;;;;;;;5.87;1.37;;;16.30;71.00;;;;;;5077329;28;20193;-67
2023/08/16 02:38:59;;;;;;;2.10;1.40;;;16.70;71.10;;;;;;5077419;28;20188;-66
2023/08/16 02:41:26;;;;;;;2.27;1.10;;;17.10;69.60;;;;;;5081630;28;20208;-66
2023/08/16 02:43:53;;;;;;;2.10;1.10;;;17.70;68.60;;;;;;5077672;28;20199;-67
2023/08/16 02:46:21;;;;;;;1.30;0.80;;;17.80;66.10;;;;;;5083682;28;20193;-65
2023/08/16 02:48:48;;;;;;;3.63;1.27;;;17.90;68.50;;;;;;5076844;28;20241;-64
2023/08/16 02:51:16;;;;;;;2.40;1.10;;;18.40;66.30;;;;;;5081519;28;20229;-68
2023/08/16 02:53:44;;;;;;;2.33;1.00;;;18.80;62.80;;;;;;5077212;28;21169;-66
2023/08/16 02:56:11;;;;;;;2.53;1.00;;;18.40;64.40;;;;;;5063680;28;20569;-67
2023/08/16 02:58:45;;;;;;;2.33;1.07;;;18.30;64.20;;;;;;5078579;28;20545;-66
2023/08/16 03:01:14;;;;;;;3.07;1.20;;;17.70;64.40;;;;;;5081986;28;20183;-70
2023/08/16 03:03:43;;;;;;;2.07;0.90;;;17.50;65.30;;;;;;5077810;28;20212;-70
2023/08/16 03:06:11;;;;;;;4.20;1.20;;;17.40;66.50;;;;;;5081248;28;20186;-70
2023/08/16 03:08:38;;;;;;;2.37;1.10;;;17.30;66.30;;;;;;5029729;28;20259;-67
2023/08/16 03:11:08;;;;;;;2.33;1.00;;;17.30;65.80;;;;;;5065531;28;20295;-68
2023/08/16 03:13:35;;;;;;;1.87;0.90;;;17.20;66.70;;;;;;5065714;28;20190;-66
2023/08/16 03:16:03;;;;;;;5.50;1.33;;;17.20;66.40;;;;;;5061134;28;20268;-70
2023/08/16 03:18:30;;;;;;;3.70;1.10;;;17.30;65.70;;;;;;5057918;28;20190;-67
2023/08/16 03:20:58;;;;;;;3.73;1.10;;;17.40;65.70;;;;;;5063378;28;21462;-66
2023/08/16 03:23:32;;;;;;;3.50;1.20;;;17.50;66.30;;;;;;5062252;28;20671;-66
2023/08/16 03:25:59;;;;;;;1.13;0.97;;;17.40;66.20;;;;;;5040302;28;20645;-66
2023/08/16 03:28:27;;;;;;;1.33;0.93;;;18.00;65.10;;;;;;5039699;28;20211;-67
2023/08/16 03:30:54;;;;;;;3.60;1.30;;;18.30;62.10;;;;;;5061470;28;20203;-67
2023/08/16 03:33:22;;;;;;;1.53;0.80;;;18.60;62.00;;;;;;5065568;28;20195;-66
2023/08/16 03:35:49;;;;;;;4.23;1.20;;;19.00;61.40;;;;;;5054422;28;20191;-68
2023/08/16 03:38:16;;;;;;;4.43;0.90;;;19.40;61.30;;;;;;5058123;28;20199;-67
2023/08/16 03:40:44;;;;;;;5.17;1.20;;;20.10;57.50;;;;;;5062393;28;20620;-67
2023/08/16 03:43:11;;;;;;;1.90;0.80;;;19.90;56.80;;;;;;5059596;28;20265;-69
2023/08/16 03:45:39;;;;;;;2.50;0.90;;;19.90;58.50;;;;;;5062650;28;20176;-65
2023/08/16 03:48:07;;;;;;;2.60;1.10;;;20.60;56.70;;;;;;5058550;28;20241;-66
2023/08/16 03:50:34;;;;;;;2.30;1.10;;;19.50;58.10;;;;;;5063447;28;20221;-68
2023/08/16 03:53:04;;;;;;;1.53;1.07;;;19.10;59.60;;;;;;5060814;28;20210;-67
2023/08/16 03:55:32;;;;;;;4.53;1.60;;;18.50;61.60;;;;;;5066550;28;20238;-67
2023/08/16 03:57:59;;;;;;;27.60;12.20;;;18.10;62.70;;;;;;5067548;28;20212;-70
2023/08/16 04:00:26;;;;;;;15.50;5.93;;;17.80;64.00;;;;;;5063180;28;20179;-67
2023/08/16 04:02:54;;;;;;;8.63;3.43;;;17.60;64.20;;;;;;5061520;28;20715;-67
2023/08/16 04:05:21;;;;;;;5.63;2.90;;;17.40;65.60;;;;;;5065971;28;20637;-67
2023/08/16 04:07:49;;;;;;;4.63;2.20;;;17.30;66.60;;;;;;5059857;28;20241;-70
2023/08/16 04:10:16;;;;;;;3.77;1.93;;;17.60;65.40;;;;;;5059657;28;20193;-67
2023/08/16 04:12:43;;;;;;;4.53;1.60;;;17.30;66.60;;;;;;5057943;28;20194;-68
2023/08/16 04:15:11;;;;;;;3.63;1.20;;;17.30;67.20;;;;;;5057194;28;20517;-67
2023/08/16 04:17:39;;;;;;;5.30;1.77;;;17.60;67.00;;;;;;5049906;28;20223;-67
2023/08/16 04:20:07;;;;;;;3.80;1.47;;;17.60;67.00;;;;;;5048691;28;20187;-67
2023/08/16 04:22:35;;;;;;;2.10;1.33;;;18.00;65.30;;;;;;5048468;28;20191;-70
2023/08/16 04:25:03;;;;;;;8.23;1.83;;;18.90;62.20;;;;;;5060917;28;20246;-69
2023/08/16 04:27:30;;;;;;;5.33;1.50;;;19.10;60.70;;;;;;5061884;28;20188;-67
2023/08/16 04:29:58;;;;;;;3.67;1.57;;;19.90;59.60;;;;;;5061002;28;20273;-72
2023/08/16 04:32:25;;;;;;;3.47;1.20;;;20.10;57.70;;;;;;5059446;28;20219;-68
2023/08/16 04:34:53;;;;;;;6.23;2.03;;;19.60;59.80;;;;;;5058453;28;20196;-67
2023/08/16 04:37:20;;;;;;;2.10;1.10;;;18.80;62.60;;;;;;5040262;28;20199;-67
2023/08/16 04:39:48;;;;;;;5.43;1.40;;;19.10;62.50;;;;;;5059224;28;20658;-72
2023/08/16 04:42:15;;;;;;;1.87;0.90;;;19.30;61.30;;;;;;5055282;28;20221;-67
2023/08/16 04:44:43;;;;;;;1.87;1.00;;;19.30;61.60;;;;;;5052342;28;20195;-67
2023/08/16 04:47:10;;;;;;;5.20;1.20;;;19.30;60.40;;;;;;5053100;28;20179;-66
2023/08/16 04:49:38;;;;;;;2.10;1.33;;;19.10;62.00;;;;;;5059578;28;20187;-66
2023/08/16 04:52:06;;;;;;;2.17;0.97;;;18.80;62.00;;;;;;5053034;28;20200;-67
2023/08/16 04:54:33;;;;;;;5.23;0.80;;;19.30;60.60;;;;;;5051627;28;20298;-66
2023/08/16 04:57:02;;;;;;;3.30;1.40;;;18.80;61.40;;;;;;5055381;28;20183;-64
2023/08/16 04:59:29;;;;;;;2.53;0.90;;;18.00;62.80;;;;;;5055969;28;20207;-65
2023/08/16 05:01:57;;;;;;;2.30;0.73;;;17.60;64.30;;;;;;5056453;28;20208;-64
2023/08/16 05:04:24;;;;;;;2.20;0.80;;;17.30;65.60;;;;;;5056864;28;20347;-67
2023/08/16 05:06:52;;;;;;;0.90;0.80;;;17.30;65.70;;;;;;5057525;28;20657;-65
2023/08/16 05:09:19;;;;;;;1.50;1.00;;;17.30;66.50;;;;;;5077245;28;20300;-66
2023/08/16 05:11:46;;;;;;;5.03;1.30;;;17.60;66.10;;;;;;5070097;28;20232;-66
2023/08/16 05:14:14;;;;;;;3.33;1.00;;;18.20;66.00;;;;;;5075277;28;20264;-67
2023/08/16 05:16:41;;;;;;;4.00;1.20;;;19.40;62.70;;;;;;5080107;28;20179;-65
2023/08/16 05:19:08;;;;;;;3.50;0.87;;;19.90;61.20;;;;;;5075548;28;20214;-67
2023/08/16 05:21:36;;;;;;;1.00;0.43;;;20.90;57.70;;;;;;5074477;28;20659;-67
2023/08/16 05:24:03;;;;;;;2.57;1.47;;;21.00;56.50;;;;;;5065704;28;20260;-66
2023/08/16 05:26:31;;;;;;;3.67;1.27;;;21.10;55.50;;;;;;5074289;28;20601;-69
2023/08/16 05:28:59;;;;;;;3.60;1.00;;;20.80;56.00;;;;;;5079017;28;20633;-70
2023/08/16 05:31:26;;;;;;;1.10;0.70;;;20.40;56.40;;;;;;5076807;28;20547;-68
2023/08/16 05:33:54;;;;;;;1.90;1.10;;;20.70;56.60;;;;;;5076350;28;20269;-66
2023/08/16 05:36:21;;;;;;;3.77;1.73;;;20.30;57.40;;;;;;5075915;28;20202;-67
2023/08/16 05:38:48;;;;;;;3.03;1.63;;;20.80;56.10;;;;;;5077828;28;20252;-66
2023/08/16 05:41:16;;;;;;;1.70;1.40;;;20.60;55.20;;;;;;5074410;28;20184;-66
2023/08/16 05:43:43;;;;;;;1.83;0.80;;;20.80;55.40;;;;;;5063885;28;20184;-67
2023/08/16 05:46:10;;;;;;;2.80;0.73;;;21.10;54.70;;;;;;5074270;28;20191;-66
2023/08/16 05:48:37;;;;;;;6.47;1.27;;;20.80;55.30;;;;;;5080377;28;20648;-66
2023/08/16 05:51:05;;;;;;;1.17;0.90;;;19.90;56.90;;;;;;5078415;28;20305;-65
2023/08/16 05:53:32;;;;;;;1.47;0.90;;;19.40;58.90;;;;;;5076671;28;20538;-66
2023/08/16 05:55:59;;;;;;;1.20;0.67;;;18.70;61.40;;;;;;5077115;28;20188;-66
2023/08/16 05:58:27;;;;;;;2.90;1.00;;;18.80;62.60;;;;;;5074561;28;20186;-66
2023/08/16 06:00:54;;;;;;;3.17;0.97;;;19.30;60.50;;;;;;5075938;28;20199;-67
2023/08/16 06:03:21;;;;;;;1.37;0.80;;;19.80;59.00;;;;;;5081216;28;20697;-66
2023/08/16 06:05:49;;;;;;;2.97;0.63;;;20.30;58.20;;;;;;5075295;28;20760;-66
2023/08/16 06:08:16;;;;;;;1.63;1.10;;;20.60;57.60;;;;;;5080468;28;20226;-66
2023/08/16 06:10:44;;;;;;;1.10;0.83;;;19.80;57.90;;;;;;5073064;28;20211;-67
2023/08/16 06:13:11;;;;;;;0.83;0.70;;;18.70;62.00;;;;;;5079475;28;20182;-66
2023/08/16 06:15:38;;;;;;;1.97;0.90;;;18.10;64.20;;;;;;5074548;28;20183;-65
2023/08/16 06:18:06;;;;;;;1.13;1.00;;;17.30;66.80;;;;;;5078987;28;20668;-64
2023/08/16 06:20:34;;;;;;;2.23;0.90;;;17.20;67.00;;;;;;5074447;28;20183;-64
2023/08/16 06:23:04;;;;;;;2.20;0.90;;;17.00;67.90;;;;;;5076799;28;20186;-69
2023/08/16 06:25:31;;;;;;;2.00;1.07;;;16.90;68.30;;;;;;5075747;28;20187;-65
2023/08/16 06:27:59;;;;;;;1.27;0.80;;;16.70;68.30;;;;;;5073219;28;20602;-65
2023/08/16 06:30:26;;;;;;;4.17;1.07;;;16.70;68.80;;;;;;5075168;28;20334;-66
2023/08/16 06:32:53;;;;;;;1.20;0.73;;;16.70;69.40;;;;;;5074256;28;20194;-65
2023/08/16 06:35:24;;;;;;;1.43;0.90;;;16.50;69.90;;;;;;5072391;28;20514;-70
2023/08/16 06:37:51;;;;;;;1.53;0.90;;;16.50;69.90;;;;;;5072086;28;20189;-65
2023/08/16 06:40:19;;;;;;;1.43;0.70;;;16.40;69.90;;;;;;5073781;28;20190;-65
2023/08/16 06:42:46;;;;;;;3.17;0.97;;;16.30;70.30;;;;;;5058545;28;20193;-65
2023/08/16 06:45:13;;;;;;;3.63;1.00;;;16.30;71.20;;;;;;5080858;28;20180;-67
2023/08/16 06:47:47;;;;;;;5.40;1.17;;;16.30;70.80;;;;;;5072060;28;20187;-67
2023/08/16 06:50:15;;;;;;;1.97;0.87;;;16.20;70.80;;;;;;5075825;28;20189;-66
2023/08/16 06:52:42;;;;;;;1.73;0.80;;;16.10;70.90;;;;;;5075208;28;20519;-71
2023/08/16 06:55:10;;;;;;;1.27;0.80;;;16.00;71.30;;;;;;5076333;28;20179;-66
2023/08/16 06:57:38;;;;;;;1.63;0.90;;;15.90;71.90;;;;;;5072033;28;20233;-70
2023/08/16 07:00:07;;;;;;;3.23;1.47;;;15.80;72.70;;;;;;5077123;28;20202;-65
2023/08/16 07:02:35;;;;;;;2.57;1.20;;;15.70;72.70;;;;;;5073988;28;20202;-69
2023/08/16 07:05:03;;;;;;;1.17;1.00;;;15.70;72.90;;;;;;5070899;28;20186;-67
2023/08/16 07:07:32;;;;;;;1.73;0.97;;;15.70;73.30;;;;;;5073487;28;20218;-65
2023/08/16 07:09:59;;;;;;;2.10;1.10;;;15.60;73.20;;;;;;5069067;28;20187;-65
2023/08/16 07:12:27;;;;;;;5.80;3.87;;;15.50;73.60;;;;;;5078975;28;20214;-68
2023/08/16 07:14:54;;;;;;;5.17;4.30;;;15.40;73.80;;;;;;5058519;28;20245;-70
2023/08/16 07:17:22;;;;;;;3.30;1.40;;;15.40;74.20;;;;;;5076547;28;20189;-70
2023/08/16 07:19:50;;;;;;;3.90;1.80;;;15.40;74.30;;;;;;5079755;28;20180;-72
2023/08/16 07:22:20;;;;;;;3.93;2.13;;;15.30;74.60;;;;;;5072457;28;20186;-65
2023/08/16 07:24:47;;;;;;;6.47;3.53;;;15.30;74.80;;;;;;5075596;28;20203;-65
2023/08/16 07:27:14;;;;;;;2.20;1.30;;;15.20;75.20;;;;;;5082383;28;20187;-68
2023/08/16 07:29:42;;;;;;;6.37;1.17;;;15.10;75.40;;;;;;5076193;28;20182;-67
2023/08/16 07:32:09;;;;;;;0.80;0.70;;;15.00;75.80;;;;;;5072403;28;20226;-66
2023/08/16 07:34:37;;;;;;;6.53;1.10;;;15.00;76.00;;;;;;5072209;28;20538;-67
2023/08/16 07:37:04;;;;;;;1.23;1.00;;;14.90;76.30;;;;;;5079886;28;20184;-65
2023/08/16 07:39:32;;;;;;;3.10;1.17;;;14.90;76.40;;;;;;5076869;28;20183;-64
2023/08/16 07:41:59;;;;;;;1.63;0.90;;;14.90;76.70;;;;;;5073673;28;20178;-65
2023/08/16 07:44:27;;;;;;;1.70;1.17;;;14.80;76.80;;;;;;5083455;28;20186;-64
2023/08/16 07:46:54;;;;;;;1.37;0.80;;;14.80;76.90;;;;;;5074467;28;20223;-65
2023/08/16 07:49:21;;;;;;;1.80;1.00;;;14.70;77.10;;;;;;5084846;28;20181;-66
2023/08/16 07:51:49;;;;;;;3.20;1.00;;;14.70;77.40;;;;;;5075569;28;20227;-64
2023/08/16 07:54:16;;;;;;;2.33;1.20;;;14.70;77.70;;;;;;5081300;28;20182;-64
2023/08/16 07:56:43;;;;;;;1.37;1.27;;;14.70;77.80;;;;;;5074129;28;20777;-65
2023/08/16 07:59:11;;;;;;;3.17;1.30;;;14.70;77.90;;;;;;5078474;28;20656;-64
2023/08/16 08:01:40;;;;;;;2.73;1.20;;;14.60;77.90;;;;;;5075121;28;20187;-65
2023/08/16 08:04:08;;;;;;;2.43;1.30;;;14.60;78.10;;;;;;5081354;28;20187;-65
2023/08/16 08:06:35;;;;;;;3.83;1.30;;;14.60;78.30;;;;;;5077506;28;20174;-65
2023/08/16 08:09:03;;;;;;;5.33;1.70;;;14.50;78.30;;;;;;5072950;28;20222;-65
2023/08/16 08:11:31;;;;;;;4.83;1.57;;;14.50;78.50;;;;;;5071840;28;20211;-65
2023/08/16 08:13:58;;;;;;;5.00;1.30;;;14.50;78.50;;;;;;5074645;28;20550;-64
2023/08/16 08:16:25;;;;;;;2.70;1.23;;;14.50;78.80;;;;;;5071345;28;20215;-65
2023/08/16 08:18:53;;;;;;;4.73;1.30;;;14.40;79.00;;;;;;5077548;28;20233;-65
2023/08/16 08:21:20;;;;;;;2.83;1.20;;;14.40;79.30;;;;;;5077743;28;20171;-65
2023/08/16 08:23:47;;;;;;;1.90;1.10;;;14.30;79.60;;;;;;5077231;28;20190;-65
2023/08/16 08:26:16;;;;;;;1.93;1.40;;;14.30;79.90;;;;;;5076159;28;20180;-66
2023/08/16 08:28:44;;;;;;;3.43;1.30;;;14.30;80.30;;;;;;5077156;28;20183;-66
2023/08/16 08:31:11;;;;;;;4.83;1.87;;;14.30;80.40;;;;;;5075090;28;20191;-65
2023/08/16 08:33:39;;;;;;;4.30;1.73;;;14.30;80.30;;;;;;5081771;28;20214;-66
2023/08/16 08:36:07;;;;;;;3.23;1.33;;;14.30;80.20;;;;;;5080979;28;20183;-64
2023/08/16 08:38:35;;;;;;;4.43;1.70;;;14.30;80.20;;;;;;5070833;28;20184;-65
2023/08/16 08:41:02;;;;;;;5.10;1.60;;;14.20;80.30;;;;;;5075505;28;20189;-65
2023/08/16 08:43:35;;;;;;;2.67;1.37;;;14.20;80.30;;;;;;5074101;28;20694;-65
2023/08/16 08:46:05;;;;;;;2.53;1.60;;;14.20;80.10;;;;;;5077624;28;20245;-65
2023/08/16 08:48:33;;;;;;;4.17;1.70;;;14.20;80.20;;;;;;5078075;28;20194;-64
2023/08/16 08:51:02;;;;;;;3.17;1.60;;;14.20;80.10;;;;;;5075816;28;20692;-65
2023/08/16 08:53:30;;;;;;;3.80;1.60;;;14.20;80.30;;;;;;5077852;28;20638;-65
2023/08/16 08:56:03;;;;;;;2.17;1.70;;;14.10;80.00;;;;;;5076649;28;20333;-64
2023/08/16 08:58:31;;;;;;;3.37;1.40;;;14.20;80.00;;;;;;5077714;28;20201;-65
2023/08/16 09:01:00;;;;;;;4.50;1.70;;;14.20;79.70;;;;;;5078814;28;20637;-64
2023/08/16 09:03:31;;;;;;;4.27;1.80;;;14.20;79.90;;;;;;5077751;28;20180;-68
2023/08/16 09:05:59;;;;;;;3.90;1.90;;;14.20;80.00;;;;;;5077398;28;20190;-64
2023/08/16 09:08:27;;;;;;;2.13;1.70;;;14.20;80.00;;;;;;5074752;28;20234;-66
2023/08/16 09:10:55;;;;;;;3.63;1.30;;;14.20;80.30;;;;;;5077886;28;20211;-65
2023/08/16 09:13:23;;;;;;;5.23;1.67;;;14.20;80.30;;;;;;5077105;28;20329;-69
2023/08/16 09:15:50;;;;;;;5.10;1.60;;;14.10;80.30;;;;;;5076202;28;20182;-68
2023/08/16 09:18:27;;;;;;;4.43;1.90;;;14.10;80.60;;;;;;5074793;28;20235;-62
2023/08/16 09:20:54;;;;;;;4.23;2.20;;;14.00;81.00;;;;;;5057242;28;20198;-65
2023/08/16 09:23:22;;;;;;;5.80;2.53;;;14.00;81.00;;;;;;5074263;28;20190;-72
2023/08/16 09:25:50;;;;;;;4.20;2.63;;;13.90;81.30;;;;;;5070715;28;20185;-65
2023/08/16 09:28:19;;;;;;;5.80;2.90;;;13.80;81.50;;;;;;5074034;28;20196;-71
2023/08/16 09:30:46;;;;;;;7.13;3.63;;;13.80;81.90;;;;;;5074945;28;20302;-72
2023/08/16 09:33:22;;;;;;;8.80;3.60;;;13.70;82.20;;;;;;5076170;28;20183;-67
2023/08/16 09:35:51;;;;;;;5.50;3.40;;;13.70;82.20;;;;;;5076683;28;20660;-68
2023/08/16 09:38:22;;;;;;;6.60;3.83;;;13.70;82.30;;;;;;5069554;28;20266;-71
2023/08/16 09:40:50;;;;;;;5.67;3.93;;;13.70;82.50;;;;;;5075336;28;20270;-69
2023/08/16 09:43:18;;;;;;;7.73;4.23;;;13.60;82.50;;;;;;5079765;28;20191;-68
2023/08/16 09:45:53;;;;;;;12.23;4.97;;;13.60;82.50;;;;;;5074616;28;20176;-65
2023/08/16 09:48:21;;;;;;;17.20;4.20;;;13.60;82.50;;;;;;5074097;28;20236;-72
2023/08/16 09:50:49;;;;;;;9.60;3.43;;;13.60;82.40;;;;;;5078691;28;20334;-65
2023/08/16 09:53:16;;;;;;;11.53;4.80;;;13.60;82.30;;;;;;5081831;28;20601;-65
2023/08/16 09:55:49;;;;;;;6.87;3.73;;;13.60;82.30;;;;;;5081826;28;20178;-65
2023/08/16 09:58:18;;;;;;;5.23;3.60;;;13.60;82.50;;;;;;5080239;28;20740;-65
2023/08/16 10:00:47;;;;;;;14.43;7.90;;;13.60;82.50;;;;;;5072379;28;20194;-67
2023/08/16 10:03:14;;;;;;;35.33;16.40;;;13.60;82.50;;;;;;5072711;28;20191;-68
2023/08/16 10:05:43;;;;;;;15.67;7.90;;;13.60;82.60;;;;;;5056973;28;20762;-66
2023/08/16 10:08:10;;;;;;;20.60;9.43;;;13.50;82.80;;;;;;5070302;28;20269;-70
2023/08/16 10:10:38;;;;;;;14.07;7.80;;;13.60;82.70;;;;;;5077384;28;20175;-73
2023/08/16 10:13:08;;;;;;;10.70;5.63;;;13.50;82.60;;;;;;5067436;28;20194;-70
2023/08/16 10:15:38;;;;;;;8.50;4.73;;;13.50;82.60;;;;;;5078381;28;20214;-65
2023/08/16 10:18:10;;;;;;;4.60;4.10;;;13.50;82.90;;;;;;5075483;28;20183;-65
2023/08/16 10:20:41;;;;;;;4.33;3.87;;;13.50;82.90;;;;;;5076297;28;20214;-64
2023/08/16 10:23:11;;;;;;;6.17;3.97;;;13.50;82.90;;;;;;5048549;28;20187;-66
2023/08/16 10:25:48;;;;;;;4.07;3.50;;;13.40;82.80;;;;;;5077383;28;20190;-64
2023/08/16 10:28:16;;;;;;;5.97;3.30;;;13.50;83.00;;;;;;5075331;28;20206;-65
2023/08/16 10:30:47;;;;;;;6.17;4.23;;;13.50;83.20;;;;;;5067479;28;20202;-65
2023/08/16 10:33:24;;;;;;;7.17;3.83;;;13.50;83.20;;;;;;5073557;28;20185;-65
2023/08/16 10:35:52;;;;;;;6.80;3.90;;;13.40;83.40;;;;;;5079360;28;20182;-65
2023/08/16 10:38:19;;;;;;;7.50;4.40;;;13.40;83.40;;;;;;5076724;28;20196;-65
2023/08/16 10:40:59;;;;;;;13.80;6.07;;;13.40;83.50;;;;;;5069061;28;20195;-64
2023/08/16 10:43:35;;;;;;;7.77;4.93;;;13.40;83.60;;;;;;5074019;28;20224;-64
2023/08/16 10:46:04;;;;;;;7.67;5.83;;;13.30;83.60;;;;;;5076184;28;20194;-64
2023/08/16 10:48:35;;;;;;;6.50;5.03;;;13.30;83.80;;;;;;5076281;28;20178;-64
2023/08/16 10:51:07;;;;;;;5.97;4.87;;;13.20;84.10;;;;;;5076330;28;20206;-64
2023/08/16 10:53:37;;;;;;;9.83;4.87;;;13.20;84.50;;;;;;5071895;28;20202;-64
2023/08/16 10:56:09;;;;;;;6.07;5.57;;;13.20;84.60;;;;;;5079516;28;20200;-65
2023/08/16 10:58:49;;;;;;;7.33;5.20;;;13.10;84.60;;;;;;5073441;28;20514;-64
2023/08/16 11:01:18;;;;;;;5.40;3.70;;;13.20;84.80;;;;;;5078476;28;20189;-64
2023/08/16 11:03:48;;;;;;;5.60;5.10;;;13.10;85.00;;;;;;5049629;28;20602;-64
2023/08/16 11:06:19;;;;;;;8.17;4.63;;;13.10;85.10;;;;;;5072069;28;20182;-65
2023/08/16 11:08:47;;;;;;;7.50;5.60;;;13.10;85.20;;;;;;5056063;28;20234;-64
2023/08/16 11:11:15;;;;;;;6.13;5.53;;;13.10;85.30;;;;;;5058269;28;20576;-66
2023/08/16 11:13:43;;;;;;;5.30;4.80;;;13.10;85.20;;;;;;5054086;28;20255;-67
2023/08/16 11:16:12;;;;;;;6.80;4.93;;;13.20;85.10;;;;;;5060007;28;20182;-71
2023/08/16 11:18:42;;;;;;;6.10;5.57;;;13.20;84.80;;;;;;5055429;28;20184;-65
2023/08/16 11:21:13;;;;;;;6.43;5.83;;;13.20;84.80;;;;;;5055951;28;20214;-65
2023/08/16 11:23:42;;;;;;;7.10;6.43;;;13.30;84.30;;;;;;5053606;28;20184;-70
2023/08/16 11:26:10;;;;;;;5.73;5.20;;;13.40;84.00;;;;;;5052804;28;20184;-64
2023/08/16 11:28:40;;;;;;;5.27;4.87;;;13.30;83.90;;;;;;5060019;28;20278;-67
2023/08/16 11:31:09;;;;;;;5.27;4.77;;;13.30;84.10;;;;;;5057437;28;20215;-65
2023/08/16 11:33:40;;;;;;;7.33;5.20;;;13.30;84.30;;;;;;5060433;28;20288;-65
2023/08/16 11:36:09;;;;;;;7.43;5.53;;;13.30;84.10;;;;;;5056650;28;20271;-64
2023/08/16 11:38:38;;;;;;;5.67;5.27;;;13.30;84.10;;;;;;5053171;28;20263;-65
2023/08/16 11:41:06;;;;;;;5.20;4.80;;;13.30;84.30;;;;;;5051323;28;20241;-65
2023/08/16 11:43:36;;;;;;;4.87;4.57;;;13.30;84.30;;;;;;5057730;28;20653;-64
2023/08/16 11:46:07;;;;;;;6.10;5.00;;;13.30;84.50;;;;;;5055365;28;20675;-64
2023/08/16 11:48:38;;;;;;;5.87;5.47;;;13.30;84.50;;;;;;5059950;28;20243;-65
2023/08/16 11:51:05;;;;;;;8.13;5.57;;;13.20;84.70;;;;;;5052853;28;20239;-64
2023/08/16 11:53:34;;;;;;;7.23;5.27;;;13.20;84.80;;;;;;5054027;28;20719;-64
2023/08/16 11:56:03;;;;;;;8.70;6.37;;;13.20;84.90;;;;;;5054410;28;20503;-64
2023/08/16 11:58:43;;;;;;;6.27;5.73;;;13.10;84.70;;;;;;5057799;28;20208;-65
2023/08/16 12:01:14;;;;;;;6.17;5.67;;;12.90;84.90;;;;;;5056842;28;20318;-64
2023/08/16 12:03:45;;;;;;;7.40;6.70;;;12.80;85.30;;;;;;5051813;28;20189;-64
2023/08/16 12:06:13;;;;;;;6.27;5.87;;;12.70;85.60;;;;;;5053265;28;20179;-64
2023/08/16 12:08:51;;;;;;;7.60;6.87;;;12.60;85.70;;;;;;5053006;28;20643;-64
2023/08/16 12:11:30;;;;;;;7.27;6.77;;;12.60;86.50;;;;;;5052127;28;20207;-64
2023/08/16 12:13:58;;;;;;;6.90;6.40;;;12.50;86.50;;;;;;5059806;28;20587;-65
2023/08/16 12:16:26;;;;;;;8.23;7.43;;;12.40;86.80;;;;;;5058285;28;20543;-65
2023/08/16 12:18:54;;;;;;;7.53;6.93;;;12.40;87.00;;;;;;5061101;28;20187;-64
2023/08/16 12:21:21;;;;;;;10.07;9.37;;;12.30;87.00;;;;;;5055402;28;20269;-65
2023/08/16 12:23:49;;;;;;;12.67;11.83;;;12.20;87.00;;;;;;5059022;28;20188;-65
2023/08/16 12:26:17;;;;;;;12.30;11.20;;;12.20;87.30;;;;;;5057035;28;20187;-68
2023/08/16 12:28:44;;;;;;;13.50;12.50;;;12.20;87.70;;;;;;5063710;28;20257;-68
2023/08/16 12:31:12;;;;;;;14.43;13.43;;;12.20;87.80;;;;;;5061836;28;20207;-65
2023/08/16 12:33:41;;;;;;;14.23;13.23;;;12.20;87.90;;;;;;5058010;28;20187;-70
2023/08/16 12:36:08;;;;;;;14.13;13.03;;;12.10;87.70;;;;;;5060427;28;20179;-64
2023/08/16 12:38:35;;;;;;;12.97;12.13;;;12.10;87.90;;;;;;5058238;28;20184;-68
2023/08/16 12:41:03;;;;;;;14.20;13.17;;;12.00;88.00;;;;;;5055804;28;20259;-66
2023/08/16 12:43:30;;;;;;;15.27;14.27;;;11.90;88.20;;;;;;5056866;28;20180;-71
2023/08/16 12:45:59;;;;;;;17.83;16.73;;;12.00;88.30;;;;;;5058018;28;20240;-71
2023/08/16 12:48:26;;;;;;;14.30;13.27;;;11.90;88.20;;;;;;5059778;28;20642;-69
2023/08/16 12:50:54;;;;;;;13.90;12.80;;;11.80;88.60;;;;;;5058782;28;20662;-68